createdAt,value
2018-04-18T00:00:30.313Z,0.00
2018-04-18T00:01:05.869Z,0.00
2018-04-18T00:01:41.260Z,0.00
2018-04-18T00:02:17.698Z,0.00
2018-04-18T00:02:52.698Z,0.00
2018-04-18T00:03:28.006Z,0.00
2018-04-18T00:04:03.592Z,0.00
2018-04-18T00:04:39.663Z,0.00
2018-04-18T00:05:15.723Z,0.00
2018-04-18T00:05:52.220Z,0.00
2018-04-18T00:06:27.296Z,0.00
2018-04-18T00:07:02.613Z,0.00
2018-04-18T00:07:37.889Z,0.00
2018-04-18T00:08:13.203Z,0.00
2018-04-18T00:08:49.115Z,0.00
2018-04-18T00:09:24.724Z,0.00
2018-04-18T00:10:00.224Z,0.00
2018-04-18T00:10:35.861Z,0.00
2018-04-18T00:11:12.613Z,0.00
2018-04-18T00:11:48.352Z,0.00
2018-04-18T00:12:23.930Z,0.00
2018-04-18T00:12:59.564Z,0.00
2018-04-18T00:13:34.648Z,0.00
2018-04-18T00:14:09.559Z,0.00
2018-04-18T00:14:44.746Z,0.00
2018-04-18T00:15:20.387Z,0.00
2018-04-18T00:15:56.566Z,0.00
2018-04-18T00:16:32.083Z,0.00
2018-04-18T00:17:07.883Z,0.00
2018-04-18T00:17:44.191Z,0.00
2018-04-18T00:18:19.786Z,0.00
2018-04-18T00:18:55.440Z,0.00
2018-04-18T00:19:30.825Z,0.00
2018-04-18T00:20:06.036Z,0.00
2018-04-18T00:20:43.559Z,0.00
2018-04-18T00:21:19.184Z,0.00
2018-04-18T00:21:54.934Z,0.00
2018-04-18T00:22:30.458Z,0.00
2018-04-18T00:23:05.959Z,0.00
2018-04-18T00:23:41.692Z,0.00
2018-04-18T00:24:17.164Z,0.00
2018-04-18T00:24:52.570Z,0.00
2018-04-18T00:25:28.200Z,0.00
2018-04-18T00:26:03.539Z,0.00
2018-04-18T00:26:39.516Z,0.00
2018-04-18T00:27:15.018Z,0.00
2018-04-18T00:27:50.394Z,0.00
2018-04-18T00:28:25.599Z,0.00
2018-04-18T00:29:00.782Z,0.00
2018-04-18T00:29:36.104Z,0.00
2018-04-18T00:30:11.714Z,0.00
2018-04-18T00:30:46.929Z,0.00
2018-04-18T00:31:22.280Z,0.00
2018-04-18T00:31:57.501Z,0.00
2018-04-18T00:32:32.720Z,0.00
2018-04-18T00:33:08.154Z,0.00
2018-04-18T00:33:45.388Z,0.00
2018-04-18T00:34:20.727Z,0.00
2018-04-18T00:34:56.260Z,0.00
2018-04-18T00:35:31.381Z,0.00
2018-04-18T00:36:07.088Z,0.00
2018-04-18T00:36:42.437Z,0.00
2018-04-18T00:37:17.974Z,0.00
2018-04-18T00:37:53.211Z,0.00
2018-04-18T00:38:28.314Z,0.00
2018-04-18T00:39:03.852Z,0.00
2018-04-18T00:39:39.536Z,0.00
2018-04-18T00:40:14.671Z,0.00
2018-04-18T00:40:49.757Z,0.00
2018-04-18T00:41:25.409Z,0.00
2018-04-18T00:42:00.881Z,0.00
2018-04-18T00:42:36.921Z,0.00
2018-04-18T00:43:12.029Z,0.00
2018-04-18T00:43:47.475Z,0.00
2018-04-18T00:44:22.961Z,0.00
2018-04-18T00:44:58.193Z,0.00
2018-04-18T00:45:33.590Z,0.00
2018-04-18T00:46:09.093Z,0.00
2018-04-18T00:46:44.340Z,0.00
2018-04-18T00:47:19.575Z,0.00
2018-04-18T00:47:54.969Z,0.00
2018-04-18T00:48:30.199Z,0.00
2018-04-18T00:49:05.409Z,0.00
2018-04-18T00:49:40.766Z,0.00
2018-04-18T00:50:16.035Z,0.00
2018-04-18T00:50:54.153Z,0.00
2018-04-18T00:51:29.248Z,0.00
2018-04-18T00:52:04.738Z,0.00
2018-04-18T00:52:40.341Z,0.00
2018-04-18T00:53:15.790Z,0.00
2018-04-18T00:53:51.090Z,0.00
2018-04-18T00:54:26.314Z,0.00
2018-04-18T00:55:01.707Z,0.00
2018-04-18T00:55:37.534Z,0.00
2018-04-18T00:56:12.819Z,0.00
2018-04-18T00:56:48.284Z,0.00
2018-04-18T00:57:23.824Z,0.00
2018-04-18T00:57:59.245Z,0.00
2018-04-18T00:58:34.836Z,0.00
2018-04-18T00:59:10.191Z,0.00
2018-04-18T00:59:45.794Z,0.00
2018-04-18T01:00:21.227Z,0.00
2018-04-18T01:00:56.635Z,0.00
2018-04-18T01:01:32.307Z,0.00
2018-04-18T01:02:07.915Z,0.00
2018-04-18T01:02:43.162Z,0.00
2018-04-18T01:03:18.377Z,0.00
2018-04-18T01:03:54.025Z,0.00
2018-04-18T01:04:29.007Z,0.00
2018-04-18T01:05:04.419Z,0.00
2018-04-18T01:05:41.016Z,0.00
2018-04-18T01:06:16.342Z,0.00
2018-04-18T01:06:51.760Z,0.00
2018-04-18T01:07:27.187Z,0.00
2018-04-18T01:08:02.496Z,0.00
2018-04-18T01:08:37.915Z,0.00
2018-04-18T01:09:13.245Z,0.00
2018-04-18T01:09:48.585Z,0.00
2018-04-18T01:10:23.792Z,0.00
2018-04-18T01:11:02.401Z,0.00
2018-04-18T01:11:37.909Z,0.00
2018-04-18T01:12:13.134Z,0.00
2018-04-18T01:12:48.425Z,0.00
2018-04-18T01:13:23.881Z,0.00
2018-04-18T01:13:58.983Z,0.00
2018-04-18T01:14:34.619Z,0.00
2018-04-18T01:15:09.927Z,0.00
2018-04-18T01:15:45.468Z,0.00
2018-04-18T01:16:20.759Z,0.00
2018-04-18T01:16:56.200Z,0.00
2018-04-18T01:17:31.301Z,0.00
2018-04-18T01:18:06.447Z,0.00
2018-04-18T01:18:42.168Z,0.00
2018-04-18T01:19:17.880Z,0.00
2018-04-18T01:19:52.974Z,0.00
2018-04-18T01:20:28.416Z,0.00
2018-04-18T01:21:03.913Z,0.00
2018-04-18T01:21:39.747Z,0.00
2018-04-18T01:22:15.237Z,0.00
2018-04-18T01:22:50.591Z,0.00
2018-04-18T01:23:26.266Z,0.00
2018-04-18T01:24:01.843Z,0.00
2018-04-18T01:24:36.954Z,0.00
2018-04-18T01:25:12.472Z,0.00
2018-04-18T01:25:47.904Z,0.00
2018-04-18T01:26:23.252Z,0.00
2018-04-18T01:26:58.254Z,0.00
2018-04-18T01:27:33.485Z,0.00
2018-04-18T01:28:08.995Z,0.00
2018-04-18T01:28:44.843Z,0.00
2018-04-18T01:29:19.983Z,0.00
2018-04-18T01:29:55.618Z,0.00
2018-04-18T01:30:31.119Z,0.00
2018-04-18T01:31:06.666Z,0.00
2018-04-18T01:31:42.364Z,0.00
2018-04-18T01:32:17.691Z,0.00
2018-04-18T01:32:53.118Z,0.00
2018-04-18T01:33:28.428Z,0.00
2018-04-18T01:34:03.815Z,0.00
2018-04-18T01:34:39.566Z,0.00
2018-04-18T01:35:15.181Z,0.00
2018-04-18T01:35:50.314Z,0.00
2018-04-18T01:36:25.822Z,0.00
2018-04-18T01:37:01.284Z,0.00
2018-04-18T01:37:36.793Z,0.00
2018-04-18T01:38:12.114Z,0.00
2018-04-18T01:38:47.422Z,0.00
2018-04-18T01:39:22.856Z,0.00
2018-04-18T01:39:58.067Z,0.00
2018-04-18T01:40:33.627Z,0.00
2018-04-18T01:41:08.929Z,0.00
2018-04-18T01:41:44.463Z,0.00
2018-04-18T01:42:19.778Z,0.00
2018-04-18T01:42:54.995Z,0.00
2018-04-18T01:43:30.400Z,0.00
2018-04-18T01:44:05.702Z,0.00
2018-04-18T01:44:41.429Z,0.00
2018-04-18T01:45:16.801Z,0.00
2018-04-18T01:45:53.010Z,0.00
2018-04-18T01:46:28.133Z,0.00
2018-04-18T01:47:03.728Z,0.00
2018-04-18T01:47:39.039Z,0.00
2018-04-18T01:48:14.321Z,0.00
2018-04-18T01:48:49.563Z,0.00
2018-04-18T01:49:24.680Z,0.00
2018-04-18T01:50:00.283Z,0.00
2018-04-18T01:50:36.537Z,0.00
2018-04-18T01:51:13.201Z,0.00
2018-04-18T01:51:48.488Z,0.00
2018-04-18T01:52:24.096Z,0.00
2018-04-18T01:52:59.393Z,0.00
2018-04-18T01:53:35.122Z,0.00
2018-04-18T01:54:10.605Z,0.00
2018-04-18T01:54:46.048Z,0.00
2018-04-18T01:55:21.257Z,0.00
2018-04-18T01:55:56.715Z,0.00
2018-04-18T01:56:31.811Z,0.00
2018-04-18T01:57:07.022Z,0.00
2018-04-18T01:57:42.721Z,0.00
2018-04-18T01:58:18.263Z,0.00
2018-04-18T01:58:53.561Z,0.00
2018-04-18T01:59:29.286Z,0.00
2018-04-18T02:00:04.587Z,0.00
2018-04-18T02:00:41.423Z,0.00
2018-04-18T02:01:19.148Z,0.00
2018-04-18T02:01:54.686Z,0.00
2018-04-18T02:02:29.769Z,0.00
2018-04-18T02:03:05.012Z,0.00
2018-04-18T02:03:40.511Z,0.00
2018-04-18T02:04:15.948Z,0.00
2018-04-18T02:04:52.241Z,0.00
2018-04-18T02:05:29.808Z,0.00
2018-04-18T02:06:10.469Z,0.00
2018-04-18T02:06:45.776Z,0.00
2018-04-18T02:10:00.222Z,0.00
2018-04-18T02:10:36.028Z,0.00
2018-04-18T02:11:11.437Z,0.00
2018-04-18T02:11:46.815Z,0.00
2018-04-18T02:12:22.088Z,0.00
2018-04-18T02:12:57.701Z,0.00
2018-04-18T02:13:32.965Z,0.00
2018-04-18T02:14:08.357Z,0.00
2018-04-18T02:14:43.561Z,0.00
2018-04-18T02:15:18.640Z,0.00
2018-04-18T02:15:54.029Z,0.00
2018-04-18T02:16:29.631Z,0.00
2018-04-18T02:17:04.830Z,0.00
2018-04-18T02:17:40.667Z,0.00
2018-04-18T02:18:16.078Z,0.00
2018-04-18T02:18:51.880Z,0.00
2018-04-18T02:19:27.147Z,0.00
2018-04-18T02:20:02.645Z,0.00
2018-04-18T02:20:39.842Z,0.00
2018-04-18T02:21:15.741Z,0.00
2018-04-18T02:21:51.186Z,0.00
2018-04-18T02:22:26.691Z,0.00
2018-04-18T02:23:01.907Z,0.00
2018-04-18T02:23:37.290Z,0.00
2018-04-18T02:24:12.771Z,0.00
2018-04-18T02:24:48.270Z,0.00
2018-04-18T02:25:23.345Z,0.00
2018-04-18T02:25:58.656Z,0.00
2018-04-18T02:26:34.180Z,0.00
2018-04-18T02:27:09.420Z,0.00
2018-04-18T02:27:45.021Z,0.00
2018-04-18T02:28:20.691Z,0.00
2018-04-18T02:28:56.397Z,0.00
2018-04-18T02:29:32.022Z,0.00
2018-04-18T02:30:07.362Z,0.00
2018-04-18T02:30:42.751Z,0.00
2018-04-18T02:31:18.162Z,0.00
2018-04-18T02:31:53.515Z,0.00
2018-04-18T02:32:28.812Z,0.00
2018-04-18T02:33:04.109Z,0.00
2018-04-18T02:33:39.602Z,0.00
2018-04-18T02:34:14.796Z,0.00
2018-04-18T02:34:50.107Z,0.00
2018-04-18T02:35:25.681Z,0.00
2018-04-18T02:36:01.199Z,0.00
2018-04-18T02:36:36.785Z,0.00
2018-04-18T02:37:12.075Z,0.00
2018-04-18T02:37:47.523Z,0.00
2018-04-18T02:38:22.808Z,0.00
2018-04-18T02:38:58.696Z,0.00
2018-04-18T02:39:35.495Z,0.00
2018-04-18T02:40:11.131Z,0.00
2018-04-18T02:40:47.049Z,0.00
2018-04-18T02:41:23.440Z,0.00
2018-04-18T02:41:58.841Z,0.00
2018-04-18T02:42:34.111Z,0.00
2018-04-18T02:43:09.535Z,0.00
2018-04-18T02:43:47.325Z,0.00
2018-04-18T02:44:22.735Z,0.00
2018-04-18T02:44:58.128Z,0.00
2018-04-18T02:45:33.505Z,0.00
2018-04-18T02:46:08.909Z,0.00
2018-04-18T02:46:44.331Z,0.00
2018-04-18T02:47:19.600Z,0.00
2018-04-18T02:47:54.987Z,0.00
2018-04-18T02:48:30.409Z,0.00
2018-04-18T02:49:06.013Z,0.00
2018-04-18T02:49:41.092Z,0.00
2018-04-18T02:50:16.699Z,0.00
2018-04-18T02:50:52.114Z,0.00
2018-04-18T02:51:27.597Z,0.00
2018-04-18T02:52:03.115Z,0.00
2018-04-18T02:52:39.102Z,0.00
2018-04-18T02:53:14.300Z,0.00
2018-04-18T02:53:49.537Z,0.00
2018-04-18T02:54:25.002Z,0.00
2018-04-18T02:55:00.510Z,0.00
2018-04-18T02:55:37.014Z,0.00
2018-04-18T02:56:12.337Z,0.00
2018-04-18T02:56:48.755Z,0.00
2018-04-18T02:57:24.025Z,0.00
2018-04-18T02:57:59.153Z,0.00
2018-04-18T02:58:34.852Z,0.00
2018-04-18T02:59:10.408Z,0.00
2018-04-18T02:59:45.824Z,0.00
2018-04-18T03:00:21.418Z,0.00
2018-04-18T03:00:56.731Z,0.00
2018-04-18T03:01:32.103Z,0.00
2018-04-18T03:02:07.546Z,0.00
2018-04-18T03:02:42.815Z,0.00
2018-04-18T03:03:18.730Z,0.00
2018-04-18T03:03:53.752Z,0.00
2018-04-18T03:04:28.982Z,0.00
2018-04-18T03:05:04.303Z,0.00
2018-04-18T03:05:39.589Z,0.00
2018-04-18T03:06:15.099Z,0.00
2018-04-18T03:06:51.914Z,0.00
2018-04-18T03:07:27.137Z,0.00
2018-04-18T03:08:02.550Z,0.00
2018-04-18T03:08:37.750Z,0.00
2018-04-18T03:09:13.156Z,0.00
2018-04-18T03:09:48.609Z,0.00
2018-04-18T03:10:23.924Z,0.00
2018-04-18T03:11:00.668Z,0.00
2018-04-18T03:11:36.152Z,0.00
2018-04-18T03:12:11.756Z,0.00
2018-04-18T03:12:47.033Z,0.00
2018-04-18T03:13:22.347Z,0.00
2018-04-18T03:13:57.719Z,0.00
2018-04-18T03:14:33.330Z,0.00
2018-04-18T03:15:08.685Z,0.00
2018-04-18T03:15:44.573Z,0.00
2018-04-18T03:16:19.865Z,0.00
2018-04-18T03:16:55.845Z,0.00
2018-04-18T03:17:31.134Z,0.00
2018-04-18T03:18:06.296Z,0.00
2018-04-18T03:18:41.576Z,0.00
2018-04-18T03:19:16.976Z,0.00
2018-04-18T03:19:52.278Z,0.00
2018-04-18T03:20:27.518Z,0.00
2018-04-18T03:21:02.595Z,0.00
2018-04-18T03:21:37.997Z,0.00
2018-04-18T03:22:13.419Z,0.00
2018-04-18T03:22:48.710Z,0.00
2018-04-18T03:23:24.113Z,0.00
2018-04-18T03:23:59.603Z,0.00
2018-04-18T03:24:34.614Z,0.00
2018-04-18T03:25:13.355Z,0.00
2018-04-18T03:25:48.764Z,0.00
2018-04-18T03:26:24.165Z,0.00
2018-04-18T03:26:59.466Z,0.00
2018-04-18T03:27:34.684Z,0.00
2018-04-18T03:28:09.790Z,0.00
2018-04-18T03:28:47.081Z,0.00
2018-04-18T03:29:22.283Z,0.00
2018-04-18T03:29:57.669Z,0.00
2018-04-18T03:30:33.087Z,0.00
2018-04-18T03:31:10.035Z,0.00
2018-04-18T03:31:45.416Z,0.00
2018-04-18T03:32:20.727Z,0.00
2018-04-18T03:32:55.913Z,0.00
2018-04-18T03:33:31.223Z,0.00
2018-04-18T03:34:09.040Z,0.00
2018-04-18T03:34:44.135Z,0.00
2018-04-18T03:35:19.461Z,0.00
2018-04-18T03:35:58.005Z,0.00
2018-04-18T03:36:35.503Z,0.00
2018-04-18T03:37:10.708Z,0.00
2018-04-18T03:37:46.167Z,0.00
2018-04-18T03:38:24.001Z,0.00
2018-04-18T03:38:59.264Z,0.00
2018-04-18T03:39:35.289Z,0.00
2018-04-18T03:40:10.725Z,0.00
2018-04-18T03:40:47.044Z,0.00
2018-04-18T03:41:22.234Z,0.00
2018-04-18T03:41:57.460Z,0.00
2018-04-18T03:42:32.984Z,0.00
2018-04-18T03:43:08.400Z,0.00
2018-04-18T03:43:43.810Z,0.00
2018-04-18T03:44:19.099Z,0.00
2018-04-18T03:44:54.368Z,0.00
2018-04-18T03:45:31.677Z,0.00
2018-04-18T03:46:07.174Z,0.00
2018-04-18T03:46:42.877Z,0.00
2018-04-18T03:47:19.000Z,0.00
2018-04-18T03:47:55.973Z,0.00
2018-04-18T03:48:31.386Z,0.00
2018-04-18T03:49:06.788Z,0.00
2018-04-18T03:49:42.168Z,0.00
2018-04-18T03:50:17.674Z,0.00
2018-04-18T03:50:53.148Z,0.00
2018-04-18T03:51:28.761Z,0.00
2018-04-18T03:52:04.573Z,0.00
2018-04-18T03:52:39.975Z,0.00
2018-04-18T03:53:16.866Z,0.00
2018-04-18T03:53:52.188Z,0.00
2018-04-18T03:54:27.404Z,0.00
2018-04-18T03:55:02.806Z,0.00
2018-04-18T03:55:38.016Z,0.00
2018-04-18T03:56:16.534Z,4.00
2018-04-18T03:56:51.725Z,4.00
2018-04-18T03:57:27.070Z,4.00
2018-04-18T03:58:02.553Z,0.00
2018-04-18T03:58:40.868Z,0.00
2018-04-18T03:59:16.355Z,4.00
2018-04-18T03:59:51.851Z,4.00
2018-04-18T04:00:27.199Z,4.00
2018-04-18T04:01:02.366Z,4.00
2018-04-18T04:01:37.489Z,4.00
2018-04-18T04:02:13.900Z,4.00
2018-04-18T04:02:51.695Z,8.00
2018-04-18T04:03:27.549Z,4.00
2018-04-18T04:04:02.735Z,8.00
2018-04-18T04:04:38.741Z,8.00
2018-04-18T04:05:14.141Z,8.00
2018-04-18T04:05:49.546Z,8.00
2018-04-18T04:06:24.856Z,8.00
2018-04-18T04:07:00.032Z,12.00
2018-04-18T04:07:35.736Z,12.00
2018-04-18T04:08:11.124Z,16.00
2018-04-18T04:08:46.354Z,16.00
2018-04-18T04:09:21.623Z,16.00
2018-04-18T04:09:56.926Z,16.00
2018-04-18T04:10:32.360Z,20.00
2018-04-18T04:11:10.026Z,20.00
2018-04-18T04:11:45.243Z,24.00
2018-04-18T04:12:20.922Z,24.00
2018-04-18T04:12:58.326Z,28.00
2018-04-18T04:13:33.751Z,32.00
2018-04-18T04:14:09.069Z,28.00
2018-04-18T04:14:44.275Z,32.00
2018-04-18T04:15:19.669Z,40.00
2018-04-18T04:15:55.159Z,40.00
2018-04-18T04:16:30.525Z,44.00
2018-04-18T04:17:05.484Z,48.00
2018-04-18T04:17:41.308Z,48.00
2018-04-18T04:18:16.692Z,56.00
2018-04-18T04:18:51.893Z,60.00
2018-04-18T04:19:27.342Z,64.00
2018-04-18T04:20:02.619Z,68.00
2018-04-18T04:20:38.839Z,72.00
2018-04-18T04:21:14.117Z,80.00
2018-04-18T04:21:50.007Z,84.00
2018-04-18T04:22:25.428Z,88.00
2018-04-18T04:23:01.007Z,96.00
2018-04-18T04:23:36.348Z,100.00
2018-04-18T04:24:11.616Z,108.00
2018-04-18T04:24:47.000Z,112.00
2018-04-18T04:25:22.383Z,120.00
2018-04-18T04:25:57.678Z,124.00
2018-04-18T04:26:33.005Z,132.00
2018-04-18T04:27:08.395Z,140.00
2018-04-18T04:27:44.403Z,144.00
2018-04-18T04:28:19.869Z,156.00
2018-04-18T04:28:55.353Z,164.00
2018-04-18T04:29:30.756Z,168.00
2018-04-18T04:30:06.198Z,180.00
2018-04-18T04:30:42.305Z,188.00
2018-04-18T04:31:17.704Z,196.00
2018-04-18T04:31:52.804Z,208.00
2018-04-18T04:32:28.296Z,220.00
2018-04-18T04:33:04.877Z,228.00
2018-04-18T04:33:40.095Z,236.00
2018-04-18T04:34:15.680Z,248.00
2018-04-18T04:34:50.677Z,256.00
2018-04-18T04:35:26.111Z,268.00
2018-04-18T04:36:01.491Z,280.00
2018-04-18T04:36:36.799Z,292.00
2018-04-18T04:37:12.193Z,304.00
2018-04-18T04:37:47.619Z,316.00
2018-04-18T04:38:23.015Z,328.00
2018-04-18T04:38:58.616Z,340.00
2018-04-18T04:39:33.861Z,352.00
2018-04-18T04:40:08.930Z,364.00
2018-04-18T04:40:44.363Z,376.00
2018-04-18T04:41:21.743Z,392.00
2018-04-18T04:41:57.256Z,408.00
2018-04-18T04:42:32.686Z,420.00
2018-04-18T04:43:08.058Z,436.00
2018-04-18T04:43:43.473Z,448.00
2018-04-18T04:44:18.875Z,464.00
2018-04-18T04:44:54.217Z,480.00
2018-04-18T04:45:29.370Z,496.00
2018-04-18T04:46:04.771Z,512.00
2018-04-18T04:46:40.173Z,524.00
2018-04-18T04:47:15.454Z,544.00
2018-04-18T04:47:50.557Z,556.00
2018-04-18T04:48:25.948Z,572.00
2018-04-18T04:49:01.230Z,592.00
2018-04-18T04:49:37.540Z,608.00
2018-04-18T04:50:12.729Z,624.00
2018-04-18T04:50:48.133Z,640.00
2018-04-18T04:51:23.667Z,656.00
2018-04-18T04:51:59.094Z,676.00
2018-04-18T04:52:34.806Z,688.00
2018-04-18T04:53:10.086Z,708.00
2018-04-18T04:53:46.833Z,724.00
2018-04-18T04:54:22.224Z,744.00
2018-04-18T04:54:57.716Z,760.00
2018-04-18T04:55:33.022Z,780.00
2018-04-18T04:56:08.406Z,796.00
2018-04-18T04:56:43.638Z,816.00
2018-04-18T04:57:19.044Z,836.00
2018-04-18T04:57:54.332Z,852.00
2018-04-18T04:58:29.823Z,868.00
2018-04-18T04:59:05.029Z,892.00
2018-04-18T04:59:40.235Z,908.00
2018-04-18T05:00:15.533Z,924.00
2018-04-18T05:00:51.159Z,948.00
2018-04-18T05:01:26.830Z,964.00
2018-04-18T05:02:02.381Z,984.00
2018-04-18T05:02:37.527Z,1000.00
2018-04-18T05:03:12.986Z,1020.00
2018-04-18T05:03:48.193Z,1032.00
2018-04-18T05:04:23.373Z,1052.00
2018-04-18T05:04:58.590Z,1072.00
2018-04-18T05:05:33.797Z,1092.00
2018-04-18T05:06:09.209Z,1112.00
2018-04-18T05:06:45.642Z,1132.00
2018-04-18T05:07:21.089Z,1148.00
2018-04-18T05:07:56.690Z,1172.00
2018-04-18T05:08:32.389Z,1188.00
2018-04-18T05:09:07.820Z,1212.00
2018-04-18T05:09:43.184Z,1232.00
2018-04-18T05:10:18.547Z,1248.00
2018-04-18T05:10:56.327Z,1268.00
2018-04-18T05:11:31.645Z,1292.00
2018-04-18T05:12:06.965Z,1304.00
2018-04-18T05:12:42.600Z,1328.00
2018-04-18T05:13:18.084Z,1348.00
2018-04-18T05:13:53.507Z,1372.00
2018-04-18T05:14:28.599Z,1392.00
2018-04-18T05:15:04.447Z,1416.00
2018-04-18T05:15:39.761Z,1440.00
2018-04-18T05:16:15.052Z,1464.00
2018-04-18T05:16:50.365Z,1488.00
2018-04-18T05:17:25.560Z,1516.00
2018-04-18T05:18:01.105Z,1532.00
2018-04-18T05:18:36.891Z,1560.00
2018-04-18T05:19:12.261Z,1580.00
2018-04-18T05:19:47.680Z,1604.00
2018-04-18T05:20:23.068Z,1620.00
2018-04-18T05:21:00.682Z,1644.00
2018-04-18T05:21:36.200Z,1664.00
2018-04-18T05:22:11.384Z,1688.00
2018-04-18T05:22:46.724Z,1712.00
2018-04-18T05:23:21.739Z,1732.00
2018-04-18T05:23:57.938Z,1760.00
2018-04-18T05:24:33.024Z,1784.00
2018-04-18T05:25:10.129Z,1808.00
2018-04-18T05:25:45.640Z,1836.00
2018-04-18T05:26:22.838Z,1864.00
2018-04-18T05:26:58.173Z,1888.00
2018-04-18T05:27:33.803Z,1916.00
2018-04-18T05:28:09.159Z,1940.00
2018-04-18T05:28:44.623Z,1968.00
2018-04-18T05:29:19.900Z,2000.00
2018-04-18T05:29:55.712Z,2032.00
2018-04-18T05:30:31.009Z,2064.00
2018-04-18T05:31:06.329Z,2096.00
2018-04-18T05:31:41.771Z,2124.00
2018-04-18T05:32:20.371Z,2152.00
2018-04-18T05:32:56.293Z,2180.00
2018-04-18T05:33:32.103Z,2212.00
2018-04-18T05:34:07.346Z,2240.00
2018-04-18T05:34:43.169Z,2272.00
2018-04-18T05:35:18.543Z,2304.00
2018-04-18T05:35:55.311Z,2340.00
2018-04-18T05:36:30.731Z,2376.00
2018-04-18T05:37:06.160Z,2412.00
2018-04-18T05:37:41.586Z,2452.00
2018-04-18T05:38:17.384Z,2484.00
2018-04-18T05:38:52.811Z,2528.00
2018-04-18T05:39:28.747Z,2572.00
2018-04-18T05:40:04.361Z,2608.00
2018-04-18T05:40:41.166Z,2648.00
2018-04-18T05:41:18.041Z,2692.00
2018-04-18T05:41:53.360Z,2728.00
2018-04-18T05:42:31.626Z,2784.00
2018-04-18T05:43:06.846Z,2824.00
2018-04-18T05:43:43.017Z,2868.00
2018-04-18T05:44:18.234Z,2916.00
2018-04-18T05:44:53.774Z,2960.00
2018-04-18T05:45:30.452Z,3000.00
2018-04-18T05:46:07.360Z,3044.00
2018-04-18T05:46:44.166Z,3088.00
2018-04-18T05:47:19.597Z,3128.00
2018-04-18T05:47:54.831Z,3168.00
2018-04-18T05:48:30.031Z,3208.00
2018-04-18T05:49:05.856Z,3252.00
2018-04-18T05:49:41.051Z,3296.00
2018-04-18T05:50:16.884Z,3340.00
2018-04-18T05:50:52.275Z,3380.00
2018-04-18T05:51:27.882Z,3424.00
2018-04-18T05:52:03.414Z,3468.00
2018-04-18T05:52:38.600Z,3516.00
2018-04-18T05:53:13.816Z,3560.00
2018-04-18T05:53:49.147Z,3600.00
2018-04-18T05:54:24.237Z,3592.00
2018-04-18T05:54:59.851Z,3636.00
2018-04-18T05:55:34.960Z,3680.00
2018-04-18T05:56:10.194Z,3724.00
2018-04-18T05:56:45.729Z,3772.00
2018-04-18T05:57:21.013Z,3820.00
2018-04-18T05:57:56.426Z,3872.00
2018-04-18T05:58:31.830Z,3920.00
2018-04-18T05:59:07.357Z,3964.00
2018-04-18T05:59:43.569Z,4016.00
2018-04-18T06:00:19.075Z,4076.00
2018-04-18T06:00:55.115Z,4132.00
2018-04-18T06:01:30.302Z,4188.00
2018-04-18T06:02:05.703Z,4240.00
2018-04-18T06:02:41.320Z,4300.00
2018-04-18T06:03:17.029Z,4364.00
2018-04-18T06:03:52.538Z,4432.00
2018-04-18T06:04:27.964Z,4488.00
2018-04-18T06:05:06.363Z,4564.00
2018-04-18T06:05:41.555Z,4624.00
2018-04-18T06:06:18.466Z,4684.00
2018-04-18T06:06:53.751Z,4740.00
2018-04-18T06:07:29.251Z,4788.00
2018-04-18T06:08:07.590Z,4840.00
2018-04-18T06:08:42.590Z,4896.00
2018-04-18T06:09:19.498Z,4948.00
2018-04-18T06:09:54.895Z,5016.00
2018-04-18T06:10:32.482Z,5080.00
2018-04-18T06:11:07.825Z,5144.00
2018-04-18T06:11:44.057Z,5224.00
2018-04-18T06:12:19.370Z,5292.00
2018-04-18T06:13:00.279Z,5380.00
2018-04-18T06:13:37.363Z,5460.00
2018-04-18T06:14:16.076Z,5536.00
2018-04-18T06:14:54.131Z,5632.00
2018-04-18T06:15:32.718Z,5724.00
2018-04-18T06:16:07.931Z,5812.00
2018-04-18T06:16:43.047Z,5940.00
2018-04-18T06:17:22.067Z,6172.00
2018-04-18T06:17:57.386Z,6440.00
2018-04-18T06:18:36.377Z,6696.00
2018-04-18T06:19:11.620Z,6868.00
2018-04-18T06:19:46.928Z,7032.00
2018-04-18T06:20:22.335Z,7188.00
2018-04-18T06:20:59.775Z,7336.00
2018-04-18T06:21:35.242Z,7412.00
2018-04-18T06:22:12.246Z,7468.00
2018-04-18T06:22:47.798Z,7484.00
2018-04-18T06:23:22.988Z,7476.00
2018-04-18T06:23:58.444Z,7488.00
2018-04-18T06:24:33.778Z,7536.00
2018-04-18T06:25:09.093Z,7608.00
2018-04-18T06:25:47.620Z,7700.00
2018-04-18T06:26:25.697Z,7784.00
2018-04-18T06:27:04.751Z,7864.00
2018-04-18T06:27:42.247Z,7928.00
2018-04-18T06:28:17.612Z,7980.00
2018-04-18T06:28:52.938Z,8048.00
2018-04-18T06:29:28.444Z,8124.00
2018-04-18T06:30:03.858Z,8220.00
2018-04-18T06:30:42.260Z,8352.00
2018-04-18T06:31:20.061Z,8548.00
2018-04-18T06:31:55.775Z,8732.00
2018-04-18T06:32:32.962Z,9036.00
2018-04-18T06:33:08.173Z,9452.00
2018-04-18T06:33:45.993Z,9924.00
2018-04-18T06:34:21.327Z,10244.00
2018-04-18T06:34:56.848Z,10488.00
2018-04-18T06:35:32.370Z,10644.00
2018-04-18T06:36:11.299Z,10728.00
2018-04-18T06:36:46.471Z,10796.00
2018-04-18T06:37:21.893Z,10860.00
2018-04-18T06:37:57.396Z,10900.00
2018-04-18T06:38:32.843Z,10968.00
2018-04-18T06:39:08.208Z,11112.00
2018-04-18T06:39:46.542Z,11356.00
2018-04-18T06:40:22.598Z,11992.00
2018-04-18T06:40:58.091Z,12860.00
2018-04-18T06:41:35.191Z,13052.00
2018-04-18T06:42:10.907Z,12720.00
2018-04-18T06:42:46.505Z,12088.00
2018-04-18T06:43:22.127Z,11688.00
2018-04-18T06:43:57.222Z,11432.00
2018-04-18T06:44:32.873Z,11324.00
2018-04-18T06:45:08.329Z,11304.00
2018-04-18T06:45:44.049Z,11336.00
2018-04-18T06:46:20.900Z,11400.00
2018-04-18T06:46:56.212Z,11480.00
2018-04-18T06:47:31.492Z,11540.00
2018-04-18T06:48:06.915Z,11588.00
2018-04-18T06:48:42.313Z,11620.00
2018-04-18T06:49:17.617Z,11656.00
2018-04-18T06:49:53.435Z,11704.00
2018-04-18T06:50:28.754Z,11740.00
2018-04-18T06:51:07.271Z,11812.00
2018-04-18T06:51:42.477Z,11900.00
2018-04-18T06:52:17.796Z,11972.00
2018-04-18T06:52:53.700Z,12056.00
2018-04-18T06:53:28.836Z,12144.00
2018-04-18T06:54:04.276Z,12224.00
2018-04-18T06:54:39.568Z,12268.00
2018-04-18T06:55:15.003Z,12352.00
2018-04-18T06:55:50.207Z,12448.00
2018-04-18T06:56:28.514Z,12604.00
2018-04-18T06:57:04.755Z,12796.00
2018-04-18T06:57:39.893Z,12976.00
2018-04-18T06:58:15.222Z,13196.00
2018-04-18T06:58:50.823Z,13428.00
2018-04-18T06:59:26.328Z,13604.00
2018-04-18T07:00:01.823Z,13688.00
2018-04-18T07:02:38.302Z,12952.00
2018-04-18T07:03:13.869Z,12888.00
2018-04-18T07:03:51.988Z,12868.00
2018-04-18T07:04:27.085Z,12876.00
2018-04-18T07:05:05.504Z,12932.00
2018-04-18T07:05:41.633Z,13000.00
2018-04-18T07:06:17.317Z,12996.00
2018-04-18T07:06:52.621Z,13072.00
2018-04-18T07:07:27.964Z,13124.00
2018-04-18T07:08:03.735Z,13148.00
2018-04-18T07:08:40.549Z,13140.00
2018-04-18T07:09:15.967Z,13152.00
2018-04-18T07:09:51.193Z,13104.00
2018-04-18T07:10:26.609Z,13148.00
2018-04-18T07:11:05.095Z,13160.00
2018-04-18T07:11:40.572Z,13180.00
2018-04-18T07:12:18.091Z,13200.00
2018-04-18T07:12:53.453Z,13216.00
2018-04-18T07:13:30.285Z,13236.00
2018-04-18T07:14:05.779Z,13312.00
2018-04-18T07:14:40.882Z,13312.00
2018-04-18T07:15:16.190Z,13324.00
2018-04-18T07:15:53.977Z,13320.00
2018-04-18T07:16:30.402Z,13288.00
2018-04-18T07:17:05.723Z,13316.00
2018-04-18T07:17:42.020Z,13360.00
2018-04-18T07:18:17.543Z,13360.00
2018-04-18T07:18:53.053Z,13364.00
2018-04-18T07:19:28.467Z,13376.00
2018-04-18T07:20:03.897Z,13360.00
2018-04-18T07:20:41.488Z,13336.00
2018-04-18T07:21:17.094Z,13320.00
2018-04-18T07:21:52.306Z,13308.00
2018-04-18T07:22:27.843Z,13320.00
2018-04-18T07:23:04.225Z,13316.00
2018-04-18T07:23:42.224Z,13308.00
2018-04-18T07:24:17.678Z,13288.00
2018-04-18T07:24:52.867Z,13252.00
2018-04-18T07:25:31.375Z,13268.00
2018-04-18T07:26:06.659Z,13248.00
2018-04-18T07:26:42.204Z,13228.00
2018-04-18T07:27:17.344Z,13224.00
2018-04-18T07:27:52.449Z,13200.00
2018-04-18T07:28:27.678Z,13172.00
2018-04-18T07:29:03.179Z,13184.00
2018-04-18T07:29:39.107Z,13148.00
2018-04-18T07:30:14.315Z,13076.00
2018-04-18T07:30:49.889Z,13028.00
2018-04-18T07:31:25.417Z,12980.00
2018-04-18T07:32:01.008Z,12916.00
2018-04-18T07:32:36.263Z,12880.00
2018-04-18T07:33:11.756Z,12900.00
2018-04-18T07:33:47.201Z,12980.00
2018-04-18T07:34:22.445Z,12976.00
2018-04-18T07:34:57.513Z,13032.00
2018-04-18T07:35:32.824Z,13052.00
2018-04-18T07:36:09.026Z,13032.00
2018-04-18T07:36:44.572Z,13020.00
2018-04-18T07:37:20.288Z,13008.00
2018-04-18T07:37:56.627Z,12992.00
2018-04-18T07:38:32.680Z,12972.00
2018-04-18T07:39:07.876Z,13000.00